createdAt,value
2023-10-24T17:52:44.030Z,16.94
2023-10-24T17:55:10.804Z,17.77
2023-10-24T17:57:40.913Z,18.48
2023-10-24T18:00:14.997Z,18.92
2023-10-24T18:02:43.592Z,19.29
2023-10-24T18:05:10.317Z,19.39
2023-10-24T18:07:38.690Z,19.42
2023-10-24T18:10:05.923Z,19.50
2023-10-24T18:12:32.543Z,19.53
2023-10-24T18:14:59.238Z,19.71
2023-10-24T18:17:25.908Z,19.96
2023-10-24T18:19:52.507Z,19.98
2023-10-24T18:22:19.149Z,19.57
2023-10-24T18:24:45.805Z,19.32
2023-10-24T18:27:12.582Z,19.56
2023-10-24T18:29:39.476Z,19.60
2023-10-24T18:32:07.475Z,19.70
2023-10-24T18:34:34.057Z,19.46
2023-10-24T18:37:00.836Z,19.55
2023-10-24T18:39:27.520Z,19.63
2023-10-24T18:41:54.103Z,19.84
2023-10-24T18:44:20.789Z,19.69
2023-10-24T18:46:47.505Z,19.94
2023-10-24T18:49:14.290Z,20.04
2023-10-24T18:51:40.901Z,20.27
2023-10-24T18:54:07.543Z,20.27
2023-10-24T18:56:34.444Z,20.19
2023-10-24T18:59:02.847Z,20.41
2023-10-24T19:01:29.550Z,20.53
2023-10-24T19:03:56.419Z,20.58
2023-10-24T19:06:23.106Z,20.58
2023-10-24T19:08:49.793Z,20.72
2023-10-24T19:11:16.776Z,20.67
2023-10-24T19:13:44.459Z,20.69
2023-10-24T19:16:11.721Z,20.79
2023-10-24T19:18:38.721Z,20.93
2023-10-24T19:21:07.187Z,20.90
2023-10-24T19:23:34.218Z,20.88
2023-10-24T19:26:04.611Z,21.01
2023-10-24T19:28:31.824Z,21.05
2023-10-24T19:30:58.801Z,20.95
2023-10-24T19:33:25.778Z,20.87
2023-10-24T19:35:54.606Z,21.01
2023-10-24T19:38:25.962Z,20.97
2023-10-24T19:40:52.927Z,20.74
2023-10-24T19:43:20.253Z,20.84
2023-10-24T19:45:49.008Z,20.72
2023-10-24T19:48:17.982Z,20.78
2023-10-24T19:50:45.684Z,21.05
2023-10-24T19:53:12.818Z,21.09
2023-10-24T19:55:42.528Z,21.19
2023-10-24T19:58:09.896Z,21.31
2023-10-24T20:00:36.980Z,21.11
2023-10-24T20:03:04.653Z,20.96
2023-10-24T20:05:31.688Z,20.95
2023-10-24T20:07:59.951Z,20.96
2023-10-24T20:11:41.245Z,21.17
2023-10-24T20:13:18.294Z,21.01
2023-10-24T20:15:45.468Z,20.89
2023-10-24T20:18:12.651Z,20.94
2023-10-24T20:20:40.719Z,20.92
2023-10-24T20:23:08.087Z,20.93
2023-10-24T20:25:34.870Z,20.82
2023-10-24T20:28:01.588Z,20.69
2023-10-24T20:30:28.769Z,20.75
2023-10-24T20:32:55.590Z,20.66
2023-10-24T20:35:27.478Z,20.72
2023-10-24T20:37:55.578Z,20.09
2023-10-24T20:40:22.272Z,19.81
2023-10-24T20:42:49.647Z,19.82
2023-10-24T20:45:18.469Z,19.92
2023-10-24T20:47:47.007Z,19.90
2023-10-24T20:50:14.090Z,19.89
2023-10-24T20:52:40.719Z,20.26
2023-10-24T20:55:07.897Z,20.36
2023-10-24T20:57:34.740Z,20.21
2023-10-24T21:00:01.628Z,20.09
2023-10-24T21:02:28.317Z,20.22
2023-10-24T21:04:55.101Z,20.14
2023-10-24T21:07:21.799Z,20.13
2023-10-24T21:09:48.475Z,20.08
2023-10-24T21:12:15.614Z,20.30
2023-10-24T21:14:42.479Z,20.38
2023-10-24T21:17:09.177Z,20.56
2023-10-24T21:19:35.841Z,20.36
2023-10-24T21:22:02.674Z,20.33
2023-10-24T21:24:30.025Z,20.46
2023-10-24T21:26:56.797Z,20.23
2023-10-24T21:29:25.291Z,20.12
2023-10-24T21:31:52.913Z,20.00
2023-10-24T21:34:19.702Z,19.99
2023-10-24T21:36:46.483Z,20.10
2023-10-24T21:39:13.433Z,20.10
2023-10-24T21:41:40.070Z,20.35
2023-10-24T21:44:07.281Z,20.46
2023-10-24T21:46:34.210Z,20.43
2023-10-24T21:49:01.035Z,20.54
2023-10-24T21:51:27.762Z,20.69
2023-10-24T21:53:54.364Z,20.58
2023-10-24T21:56:21.125Z,20.78
2023-10-24T21:58:48.137Z,20.87
2023-10-24T22:01:19.213Z,20.77
2023-10-24T22:03:46.901Z,20.77
2023-10-24T22:06:14.068Z,20.83
2023-10-24T22:08:40.723Z,20.74
2023-10-24T22:11:07.613Z,20.68
2023-10-24T22:13:34.467Z,20.64
2023-10-24T22:16:01.315Z,20.69
2023-10-24T22:18:28.596Z,20.66
2023-10-24T22:20:55.365Z,20.73
2023-10-24T22:23:22.078Z,20.65
2023-10-24T22:25:48.719Z,20.60
2023-10-24T22:28:15.368Z,20.62
2023-10-24T22:30:42.078Z,20.62
2023-10-24T22:33:09.102Z,20.62
2023-10-24T22:35:36.032Z,20.73
2023-10-24T22:38:04.288Z,20.69
2023-10-24T22:40:31.133Z,20.71
2023-10-24T22:42:57.949Z,20.64
2023-10-24T22:45:24.812Z,20.51
2023-10-24T22:47:51.587Z,20.78
2023-10-24T22:50:21.802Z,20.77
2023-10-24T22:52:48.951Z,20.57
2023-10-24T22:55:15.602Z,20.42
2023-10-24T22:57:42.742Z,20.27
2023-10-24T23:00:10.302Z,20.44
2023-10-24T23:02:37.050Z,20.44
2023-10-24T23:05:04.380Z,20.49
2023-10-24T23:07:31.026Z,20.50
2023-10-24T23:09:59.244Z,20.61
2023-10-24T23:12:26.174Z,20.53
2023-10-24T23:14:52.823Z,20.35
2023-10-24T23:17:19.422Z,20.14
2023-10-24T23:19:46.024Z,20.03
2023-10-24T23:22:12.790Z,19.96
2023-10-24T23:24:39.514Z,20.17
2023-10-24T23:27:06.154Z,20.05
2023-10-24T23:29:32.985Z,20.00
2023-10-24T23:31:59.662Z,20.20
2023-10-24T23:34:26.325Z,20.11
2023-10-24T23:36:53.477Z,20.09
2023-10-24T23:39:20.230Z,20.08
2023-10-24T23:41:46.849Z,20.08
2023-10-24T23:44:13.480Z,19.97
2023-10-24T23:46:40.162Z,19.97
2023-10-24T23:49:06.862Z,19.93
2023-10-24T23:51:33.598Z,19.93
2023-10-24T23:54:00.357Z,20.01
2023-10-24T23:56:26.967Z,19.91
2023-10-24T23:58:53.572Z,19.87
